Time;durP1;ratioP1;P1;durP2;ratioP2;P2;SDS_P1;SDS_P2;PMS_P1;PMS_P2;Temp;Humidity;BMP_temperature;BMP_pressure;BME280_temperature;BME280_humidity;BME280_pressure;Samples;Min_cycle;Max_cycle;Signal;HPM_P1;HPM_P2
2024/01/12 00:01:57;;;;;;;23.83;16.03;;;1.00;99.90;;;;;;5034093;28;20663;-59
2024/01/12 00:04:23;;;;;;;23.33;13.47;;;1.00;99.90;;;;;;5035206;28;20520;-60
2024/01/12 00:06:48;;;;;;;18.20;14.57;;;1.00;99.90;;;;;;5029854;28;20290;-53
2024/01/12 00:09:14;;;;;;;24.03;14.47;;;0.90;99.90;;;;;;5032640;28;20266;-52
2024/01/12 00:11:40;;;;;;;21.07;14.23;;;0.80;99.90;;;;;;5031698;28;20196;-53
2024/01/12 00:14:05;;;;;;;23.13;15.90;;;0.90;99.90;;;;;;5030965;28;20205;-52
2024/01/12 00:16:31;;;;;;;27.20;16.73;;;1.10;99.90;;;;;;5029224;28;20204;-52
2024/01/12 00:18:56;;;;;;;23.80;16.20;;;1.70;99.90;;;;;;5030372;28;20207;-53
2024/01/12 00:21:22;;;;;;;21.23;14.07;;;1.40;99.90;;;;;;5032298;28;20307;-52
2024/01/12 00:23:48;;;;;;;25.50;14.53;;;1.40;99.90;;;;;;5011179;28;20509;-52
2024/01/12 00:26:13;;;;;;;23.17;15.17;;;1.60;99.90;;;;;;5033655;28;20206;-53
2024/01/12 00:28:39;;;;;;;23.40;14.97;;;1.20;99.90;;;;;;5034009;28;20283;-52
2024/01/12 00:31:04;;;;;;;22.13;15.03;;;1.20;99.90;;;;;;5031865;28;20290;-53
2024/01/12 00:33:30;;;;;;;23.30;13.37;;;1.00;99.90;;;;;;5029257;28;20283;-52
2024/01/12 00:35:55;;;;;;;20.30;14.00;;;1.20;99.90;;;;;;5016628;28;20611;-52
2024/01/12 00:38:21;;;;;;;23.37;14.87;;;1.20;99.90;;;;;;5032502;28;20196;-52
2024/01/12 00:40:46;;;;;;;22.83;13.87;;;1.00;99.90;;;;;;5031106;28;20201;-53
2024/01/12 00:43:12;;;;;;;24.63;15.00;;;1.00;99.90;;;;;;5030795;28;20228;-52
2024/01/12 00:45:37;;;;;;;18.60;13.57;;;1.00;99.90;;;;;;5031097;28;20208;-52
2024/01/12 00:48:05;;;;;;;22.90;15.57;;;1.00;99.90;;;;;;5022373;28;20832;-53
2024/01/12 00:50:30;;;;;;;21.90;14.50;;;0.90;99.90;;;;;;5024945;28;20213;-52
2024/01/12 00:52:56;;;;;;;24.27;14.00;;;1.00;99.90;;;;;;5030988;28;20270;-52
2024/01/12 00:55:21;;;;;;;20.47;15.27;;;0.90;99.90;;;;;;5030114;28;20232;-52
2024/01/12 00:57:47;;;;;;;22.33;14.40;;;0.80;99.90;;;;;;5015357;28;20671;-52
2024/01/12 01:00:13;;;;;;;18.90;13.73;;;0.90;99.90;;;;;;5028930;28;21001;-53
2024/01/12 01:02:38;;;;;;;19.90;13.50;;;0.90;99.90;;;;;;5035633;28;20206;-53
2024/01/12 01:05:04;;;;;;;26.87;15.80;;;0.80;99.90;;;;;;5026752;28;20220;-52
2024/01/12 01:07:30;;;;;;;23.07;14.87;;;0.80;99.90;;;;;;5031346;28;20780;-52
2024/01/12 01:09:55;;;;;;;23.30;14.67;;;0.80;99.90;;;;;;5033170;28;20228;-52
2024/01/12 01:12:21;;;;;;;24.33;17.03;;;0.80;99.90;;;;;;5029401;28;20620;-52
2024/01/12 01:14:47;;;;;;;22.73;14.67;;;0.90;99.90;;;;;;5032449;28;21148;-53
2024/01/12 01:17:13;;;;;;;29.03;15.17;;;0.80;99.90;;;;;;5033404;28;20220;-52
2024/01/12 01:19:39;;;;;;;28.20;14.47;;;0.90;99.90;;;;;;5036531;28;20207;-52
2024/01/12 01:22:05;;;;;;;24.60;15.73;;;0.80;99.90;;;;;;5032492;28;20548;-52
2024/01/12 01:24:30;;;;;;;24.57;14.53;;;0.90;99.90;;;;;;5027216;28;20291;-52
2024/01/12 01:26:57;;;;;;;26.80;15.27;;;0.80;99.90;;;;;;5041188;28;20685;-52
2024/01/12 01:29:22;;;;;;;21.97;14.53;;;0.80;99.90;;;;;;5033432;28;20196;-52
2024/01/12 01:31:48;;;;;;;25.67;15.90;;;0.80;99.90;;;;;;5028284;28;20205;-53
2024/01/12 01:34:14;;;;;;;23.20;15.43;;;0.90;99.90;;;;;;5008553;28;20206;-52
2024/01/12 01:36:40;;;;;;;23.23;14.80;;;0.90;99.90;;;;;;5027915;28;20682;-52
2024/01/12 01:39:05;;;;;;;25.40;14.97;;;0.90;99.90;;;;;;5034012;28;20291;-53
2024/01/12 01:41:31;;;;;;;29.10;15.83;;;0.90;99.90;;;;;;5037529;28;20209;-52
2024/01/12 01:43:56;;;;;;;27.20;15.93;;;0.90;99.90;;;;;;5017322;28;20327;-53
2024/01/12 01:46:22;;;;;;;26.60;15.73;;;0.90;99.90;;;;;;5039192;28;20919;-53
2024/01/12 01:48:48;;;;;;;30.07;17.43;;;0.90;99.90;;;;;;5046153;28;20207;-52
2024/01/12 01:51:17;;;;;;;26.27;16.27;;;0.90;99.90;;;;;;5036342;28;20200;-56
2024/01/12 01:53:43;;;;;;;24.27;15.83;;;0.80;99.90;;;;;;5031562;28;20311;-61
2024/01/12 01:56:10;;;;;;;29.17;16.30;;;0.80;99.90;;;;;;5040704;28;20290;-62
2024/01/12 01:58:36;;;;;;;25.80;15.17;;;0.80;99.90;;;;;;5036021;28;20211;-63
2024/01/12 02:01:02;;;;;;;27.10;15.90;;;0.90;99.90;;;;;;5019965;28;20283;-53
2024/01/12 02:03:29;;;;;;;27.87;16.60;;;1.00;99.90;;;;;;5063227;22;20733;-53
2024/01/12 02:05:57;;;;;;;27.77;16.83;;;1.20;99.90;;;;;;4972039;28;20261;-53
2024/01/12 02:08:24;;;;;;;22.93;14.47;;;1.20;99.90;;;;;;4971803;28;20288;-62
2024/01/12 02:10:52;;;;;;;26.63;16.63;;;1.10;99.90;;;;;;4970580;28;20471;-60
2024/01/12 02:13:20;;;;;;;28.50;15.43;;;1.10;99.90;;;;;;4955901;28;20210;-59
2024/01/12 02:15:46;;;;;;;25.67;15.37;;;1.00;99.90;;;;;;4954024;28;20247;-60
2024/01/12 02:18:11;;;;;;;24.47;15.67;;;0.90;99.90;;;;;;4961333;28;20733;-52
2024/01/12 02:20:38;;;;;;;28.23;15.27;;;1.00;99.90;;;;;;4973392;28;20214;-52
2024/01/12 02:23:03;;;;;;;29.60;16.67;;;0.90;99.90;;;;;;4977131;28;20227;-54
2024/01/12 02:25:29;;;;;;;25.83;15.63;;;1.00;99.90;;;;;;4975265;28;20262;-52
2024/01/12 02:27:54;;;;;;;26.33;15.93;;;0.90;99.90;;;;;;4979037;28;20941;-52
2024/01/12 02:30:20;;;;;;;29.30;15.33;;;1.00;99.90;;;;;;4977981;28;20319;-51
2024/01/12 02:32:46;;;;;;;22.27;13.93;;;0.90;99.90;;;;;;4976789;28;20282;-52
2024/01/12 02:35:11;;;;;;;23.40;14.80;;;1.10;99.90;;;;;;4971733;28;20203;-52
2024/01/12 02:37:37;;;;;;;23.83;14.80;;;1.20;99.90;;;;;;4974078;28;20283;-51
2024/01/12 02:40:03;;;;;;;23.30;13.73;;;1.10;99.90;;;;;;4980178;28;20220;-51
2024/01/12 02:42:29;;;;;;;25.23;14.27;;;1.00;99.90;;;;;;4975310;28;20425;-52
2024/01/12 02:44:54;;;;;;;31.73;16.20;;;0.90;99.90;;;;;;4971275;28;20694;-52
2024/01/12 02:47:20;;;;;;;25.60;15.90;;;1.00;99.90;;;;;;4979157;28;20217;-52
2024/01/12 02:49:45;;;;;;;27.73;15.47;;;1.00;99.90;;;;;;4972616;28;20199;-52
2024/01/12 02:52:11;;;;;;;24.60;15.87;;;0.90;99.90;;;;;;4970431;28;20294;-52
2024/01/12 02:54:36;;;;;;;26.60;14.67;;;0.90;99.90;;;;;;4966243;28;20282;-53
2024/01/12 02:57:02;;;;;;;28.93;17.37;;;0.90;99.90;;;;;;4960213;28;20625;-51
2024/01/12 02:59:27;;;;;;;21.97;14.13;;;0.90;99.90;;;;;;4960888;28;20986;-52
2024/01/12 03:01:53;;;;;;;27.53;15.70;;;0.80;99.90;;;;;;4954048;28;20275;-52
2024/01/12 03:04:18;;;;;;;26.40;14.87;;;0.80;99.90;;;;;;4957051;28;20239;-52
2024/01/12 03:06:44;;;;;;;25.13;14.57;;;0.90;99.90;;;;;;4959100;28;21000;-54
2024/01/12 03:09:10;;;;;;;28.30;16.80;;;0.90;99.90;;;;;;4958907;28;20576;-52
2024/01/12 03:11:35;;;;;;;29.47;15.73;;;0.90;99.90;;;;;;4962756;28;20279;-52
2024/01/12 03:14:01;;;;;;;25.97;15.13;;;0.80;99.90;;;;;;4958487;28;20204;-52
2024/01/12 03:16:27;;;;;;;28.70;15.40;;;0.80;99.90;;;;;;4952337;28;20408;-52
2024/01/12 03:18:52;;;;;;;26.33;15.37;;;0.90;99.90;;;;;;4960621;28;20207;-53
2024/01/12 03:21:18;;;;;;;27.43;14.50;;;0.90;99.90;;;;;;4957170;28;20214;-52
2024/01/12 03:23:44;;;;;;;25.47;14.43;;;0.90;99.90;;;;;;4956041;28;20223;-52
2024/01/12 03:26:09;;;;;;;32.67;16.47;;;0.90;99.90;;;;;;4959963;28;20704;-53
2024/01/12 03:28:35;;;;;;;25.87;14.93;;;0.90;99.90;;;;;;4958433;28;20204;-52
2024/01/12 03:31:02;;;;;;;23.37;14.77;;;1.00;99.90;;;;;;4955341;28;20243;-52
2024/01/12 03:33:28;;;;;;;31.87;16.83;;;1.00;99.90;;;;;;4954277;28;20199;-51
2024/01/12 03:35:53;;;;;;;23.70;15.23;;;1.10;99.90;;;;;;4957688;28;20208;-51
2024/01/12 03:38:19;;;;;;;27.97;14.77;;;1.00;99.90;;;;;;4954299;28;20246;-51
2024/01/12 03:40:44;;;;;;;20.50;14.63;;;1.10;99.90;;;;;;4955778;28;20291;-51
2024/01/12 03:43:10;;;;;;;27.53;15.93;;;1.10;99.90;;;;;;4957167;28;20240;-52
2024/01/12 03:45:35;;;;;;;27.67;16.10;;;1.20;99.90;;;;;;4961538;28;20212;-51
2024/01/12 03:48:01;;;;;;;23.87;14.97;;;1.10;99.90;;;;;;4956633;28;20906;-51
2024/01/12 03:50:26;;;;;;;23.80;15.47;;;1.00;99.90;;;;;;4951914;28;20207;-50
2024/01/12 03:52:52;;;;;;;22.87;15.10;;;0.80;99.90;;;;;;4954574;28;20211;-53
2024/01/12 03:55:18;;;;;;;24.80;15.87;;;0.80;99.90;;;;;;4962520;28;20215;-52
2024/01/12 03:57:43;;;;;;;23.93;15.97;;;0.80;99.90;;;;;;4963363;28;20768;-51
2024/01/12 04:00:09;;;;;;;25.27;14.77;;;0.90;99.90;;;;;;4961221;28;20274;-51
2024/01/12 04:02:36;;;;;;;25.23;15.80;;;0.80;99.90;;;;;;4953974;28;20743;-51
2024/01/12 04:05:03;;;;;;;20.13;13.27;;;0.80;99.90;;;;;;4955844;28;20374;-51
2024/01/12 04:07:29;;;;;;;24.90;15.67;;;0.80;99.90;;;;;;4952068;28;20280;-51
2024/01/12 04:09:54;;;;;;;27.17;14.90;;;0.70;99.90;;;;;;4951006;28;20206;-51
2024/01/12 04:12:20;;;;;;;31.70;16.70;;;0.70;99.90;;;;;;4956153;28;20215;-52
2024/01/12 04:14:45;;;;;;;27.27;17.00;;;0.70;99.90;;;;;;4957522;28;20206;-51
2024/01/12 04:17:11;;;;;;;28.57;14.47;;;0.70;99.90;;;;;;4956867;28;20202;-51
2024/01/12 04:19:37;;;;;;;20.83;13.90;;;0.60;99.90;;;;;;4954257;28;20917;-51
2024/01/12 04:22:02;;;;;;;19.97;12.30;;;0.60;99.90;;;;;;4957733;28;20203;-51
2024/01/12 04:24:28;;;;;;;28.40;13.90;;;0.60;99.90;;;;;;4955316;28;20225;-51
2024/01/12 04:26:53;;;;;;;23.07;14.97;;;0.60;99.90;;;;;;4951373;28;20228;-51
2024/01/12 04:29:19;;;;;;;27.27;15.63;;;0.70;99.90;;;;;;4948492;28;20719;-52
2024/01/12 04:31:44;;;;;;;25.40;15.70;;;0.70;99.90;;;;;;4954329;28;20216;-52
2024/01/12 04:34:10;;;;;;;24.53;13.70;;;0.70;99.90;;;;;;4953940;28;20281;-63
2024/01/12 04:36:36;;;;;;;22.53;13.90;;;0.70;99.90;;;;;;4960421;28;20972;-63
2024/01/12 04:39:01;;;;;;;23.57;14.63;;;0.70;99.90;;;;;;4955282;28;20200;-52
2024/01/12 04:41:27;;;;;;;22.13;15.27;;;0.60;99.90;;;;;;4959138;28;20215;-52
2024/01/12 04:43:52;;;;;;;26.43;13.70;;;0.60;99.90;;;;;;4952645;28;20863;-52
2024/01/12 04:46:18;;;;;;;23.23;14.43;;;0.60;99.90;;;;;;4958562;28;20398;-53
2024/01/12 04:48:43;;;;;;;20.47;14.37;;;0.60;99.90;;;;;;4958570;28;20256;-52
2024/01/12 04:51:09;;;;;;;21.87;12.70;;;0.70;99.90;;;;;;4952005;28;20202;-52
2024/01/12 04:53:34;;;;;;;22.97;14.50;;;0.60;99.90;;;;;;4946835;28;20803;-52
2024/01/12 04:56:00;;;;;;;22.23;13.87;;;0.50;99.90;;;;;;4953162;28;20258;-52
2024/01/12 04:58:25;;;;;;;25.73;12.93;;;0.60;99.90;;;;;;4962989;28;20676;-52
2024/01/12 05:00:51;;;;;;;22.10;13.17;;;0.60;99.90;;;;;;4958916;28;20203;-51
2024/01/12 05:03:16;;;;;;;22.00;13.30;;;0.50;99.90;;;;;;4959293;28;20957;-52
2024/01/12 05:05:42;;;;;;;28.20;14.73;;;0.50;99.90;;;;;;4942358;28;20198;-52
2024/01/12 05:08:07;;;;;;;23.90;14.23;;;0.60;99.90;;;;;;4961919;28;20214;-52
2024/01/12 05:10:33;;;;;;;22.23;13.37;;;0.60;99.90;;;;;;4974106;28;20750;-51
2024/01/12 05:12:59;;;;;;;21.40;12.93;;;0.70;99.90;;;;;;4963323;28;20274;-52
2024/01/12 05:15:25;;;;;;;27.63;15.57;;;0.70;99.90;;;;;;4960518;28;20758;-52
2024/01/12 05:17:50;;;;;;;21.83;13.23;;;0.70;99.90;;;;;;4963357;28;20207;-51
2024/01/12 05:20:16;;;;;;;20.90;12.33;;;0.60;99.90;;;;;;4958270;28;20824;-52
2024/01/12 05:22:41;;;;;;;18.90;11.80;;;0.70;99.90;;;;;;4954463;28;20188;-51
2024/01/12 05:25:07;;;;;;;19.37;11.03;;;0.70;99.90;;;;;;4963447;28;20217;-52
2024/01/12 05:27:33;;;;;;;21.53;13.70;;;0.80;99.90;;;;;;4962176;28;20211;-51
2024/01/12 05:29:59;;;;;;;19.30;13.43;;;0.80;99.90;;;;;;4963451;28;20208;-52
2024/01/12 05:32:24;;;;;;;27.13;14.57;;;0.80;99.90;;;;;;4959377;28;20202;-52
2024/01/12 05:34:51;;;;;;;21.47;13.03;;;0.80;99.90;;;;;;4957812;28;21010;-53
2024/01/12 05:37:17;;;;;;;20.33;12.43;;;0.70;99.90;;;;;;4957034;28;20606;-53
2024/01/12 05:39:42;;;;;;;25.30;14.33;;;0.70;99.90;;;;;;4956521;28;20638;-52
2024/01/12 05:42:07;;;;;;;20.80;11.37;;;0.70;99.90;;;;;;4955687;28;20211;-52
2024/01/12 05:44:34;;;;;;;22.63;14.10;;;0.60;99.90;;;;;;4957315;28;20802;-52
2024/01/12 05:46:59;;;;;;;20.07;11.73;;;0.60;99.90;;;;;;4961402;28;20207;-52
2024/01/12 05:49:25;;;;;;;17.33;12.63;;;0.60;99.90;;;;;;4951990;28;20257;-51
2024/01/12 05:51:51;;;;;;;22.87;13.07;;;0.60;99.90;;;;;;4951476;28;20940;-52
2024/01/12 05:54:16;;;;;;;22.57;14.10;;;0.50;99.90;;;;;;4950104;28;20203;-54
2024/01/12 05:56:42;;;;;;;23.27;14.43;;;0.40;99.90;;;;;;4951451;28;20248;-52
2024/01/12 05:59:08;;;;;;;18.97;11.47;;;0.40;99.90;;;;;;4957607;28;20206;-52
2024/01/12 06:01:34;;;;;;;19.97;11.97;;;0.30;99.90;;;;;;4952892;28;20263;-52
2024/01/12 06:03:59;;;;;;;30.53;14.83;;;0.40;99.90;;;;;;4953035;28;20456;-52
2024/01/12 06:06:25;;;;;;;22.53;12.07;;;0.50;99.90;;;;;;4961485;28;20216;-52
2024/01/12 06:08:51;;;;;;;21.73;14.37;;;0.60;99.90;;;;;;4955259;28;20202;-51
2024/01/12 06:11:16;;;;;;;16.43;11.33;;;0.60;99.90;;;;;;4953769;28;20245;-51
2024/01/12 06:13:42;;;;;;;18.27;11.40;;;0.50;99.90;;;;;;4961714;28;20892;-52
2024/01/12 06:16:07;;;;;;;24.87;12.40;;;0.50;99.90;;;;;;4960522;28;20215;-52
2024/01/12 06:18:33;;;;;;;22.20;12.97;;;0.40;99.90;;;;;;4960210;28;20516;-51
2024/01/12 06:20:58;;;;;;;21.10;13.07;;;0.30;99.90;;;;;;4957877;28;20230;-52
2024/01/12 06:23:24;;;;;;;18.13;11.60;;;0.30;99.90;;;;;;4964462;28;20253;-52
2024/01/12 06:25:49;;;;;;;18.43;11.27;;;0.30;99.90;;;;;;4959818;28;20701;-52
2024/01/12 06:28:14;;;;;;;21.43;12.53;;;0.10;99.90;;;;;;4959789;28;20223;-53
2024/01/12 06:30:40;;;;;;;23.07;11.70;;;0.20;99.90;;;;;;4955273;28;20207;-52
2024/01/12 06:33:05;;;;;;;20.03;13.00;;;0.20;99.90;;;;;;4957114;28;20201;-51
2024/01/12 06:35:31;;;;;;;19.20;12.00;;;0.10;99.90;;;;;;4953289;28;20264;-52
2024/01/12 06:37:57;;;;;;;16.07;10.47;;;0.10;99.90;;;;;;4941174;28;20644;-52
2024/01/12 06:40:23;;;;;;;17.20;11.03;;;0.10;99.90;;;;;;4960534;28;20637;-52
2024/01/12 06:42:48;;;;;;;17.90;10.97;;;0.10;99.90;;;;;;4957318;28;20635;-53
2024/01/12 06:45:14;;;;;;;18.97;11.40;;;0.10;99.90;;;;;;4953366;28;20822;-52
2024/01/12 06:47:40;;;;;;;19.83;11.50;;;0.20;99.90;;;;;;4958314;28;20786;-51
2024/01/12 06:50:08;;;;;;;14.40;10.53;;;0.20;99.90;;;;;;4950216;28;20204;-53
2024/01/12 06:52:34;;;;;;;16.30;10.77;;;0.30;99.90;;;;;;4953517;28;20224;-51
2024/01/12 06:54:59;;;;;;;15.10;8.90;;;0.40;99.90;;;;;;4957361;28;20762;-52
2024/01/12 06:57:25;;;;;;;15.13;9.00;;;0.30;99.90;;;;;;4937395;28;20849;-52
2024/01/12 06:59:50;;;;;;;15.23;9.70;;;0.20;99.90;;;;;;4950811;28;20206;-60
2024/01/12 07:02:16;;;;;;;17.20;10.23;;;0.20;99.90;;;;;;4957611;28;20202;-60
2024/01/12 07:04:41;;;;;;;11.63;7.97;;;0.10;99.90;;;;;;4955300;28;20216;-62
2024/01/12 07:07:09;;;;;;;16.90;8.53;;;0.10;99.90;;;;;;4947867;28;20236;-52
2024/01/12 07:09:34;;;;;;;12.37;8.80;;;0.10;99.90;;;;;;4952677;28;20188;-53
2024/01/12 07:12:00;;;;;;;14.33;8.10;;;0.10;99.90;;;;;;4951331;28;20207;-58
2024/01/12 07:14:26;;;;;;;17.03;9.10;;;0.10;99.90;;;;;;4953132;28;20218;-58
2024/01/12 07:16:51;;;;;;;16.20;9.50;;;0.10;99.90;;;;;;4961773;28;20583;-64
2024/01/12 07:19:17;;;;;;;17.77;11.03;;;0.10;99.90;;;;;;4954835;28;20793;-61
2024/01/12 07:21:42;;;;;;;18.27;10.50;;;0.00;99.90;;;;;;4955843;28;20344;-54
2024/01/12 07:24:08;;;;;;;14.97;9.20;;;0.00;99.90;;;;;;4955967;28;20229;-54
2024/01/12 07:26:33;;;;;;;15.57;9.20;;;0.30;99.90;;;;;;4962867;28;20201;-53
2024/01/12 07:29:00;;;;;;;19.03;11.57;;;0.20;99.90;;;;;;4959286;28;20285;-54
2024/01/12 07:31:26;;;;;;;14.50;10.03;;;-0.10;99.90;;;;;;4964109;28;20207;-59
2024/01/12 07:33:51;;;;;;;15.87;9.53;;;-0.30;99.90;;;;;;4959272;28;20199;-55
2024/01/12 07:36:17;;;;;;;15.00;9.23;;;-0.10;99.90;;;;;;4959959;28;21252;-53
2024/01/12 07:38:42;;;;;;;15.07;8.70;;;-0.30;99.90;;;;;;4959647;28;20205;-53
2024/01/12 07:41:08;;;;;;;15.20;8.40;;;-0.10;99.90;;;;;;4962981;28;20225;-52
2024/01/12 07:43:33;;;;;;;15.50;9.60;;;0.00;99.90;;;;;;4966036;28;20308;-53
2024/01/12 07:45:59;;;;;;;13.57;7.77;;;-0.10;99.90;;;;;;4959130;28;20206;-53
2024/01/12 07:48:25;;;;;;;17.53;9.27;;;0.00;99.90;;;;;;4957654;28;20282;-62
2024/01/12 07:50:51;;;;;;;14.97;8.90;;;-0.20;99.90;;;;;;4958731;28;20767;-54
2024/01/12 07:53:16;;;;;;;15.33;9.20;;;-0.10;99.90;;;;;;4944273;28;20307;-54
2024/01/12 07:55:42;;;;;;;17.00;9.60;;;0.00;99.90;;;;;;4966023;28;20517;-55
2024/01/12 07:58:07;;;;;;;15.17;8.27;;;-0.20;99.90;;;;;;4941268;28;20211;-61
2024/01/12 08:00:33;;;;;;;15.00;8.07;;;0.00;99.90;;;;;;4955590;28;20823;-66
2024/01/12 08:02:58;;;;;;;13.53;9.07;;;0.10;99.90;;;;;;4950068;28;20500;-54
2024/01/12 08:05:24;;;;;;;15.90;8.20;;;0.20;99.90;;;;;;4950677;28;20763;-55
2024/01/12 08:07:50;;;;;;;16.67;7.97;;;0.10;99.90;;;;;;4948395;28;20207;-55
2024/01/12 08:10:17;;;;;;;17.07;9.83;;;0.40;99.90;;;;;;4958055;28;20619;-52
2024/01/12 08:12:42;;;;;;;19.33;9.53;;;0.40;99.90;;;;;;4938716;28;20228;-61
2024/01/12 08:15:09;;;;;;;14.07;9.07;;;0.50;99.90;;;;;;4963251;28;20235;-55
2024/01/12 08:17:37;;;;;;;18.43;9.57;;;0.70;99.90;;;;;;4956125;28;20204;-56
2024/01/12 08:20:05;;;;;;;20.40;10.47;;;0.80;99.90;;;;;;4963466;28;20746;-53
2024/01/12 08:22:32;;;;;;;18.63;10.67;;;0.90;99.90;;;;;;4959535;28;20303;-61
2024/01/12 08:24:58;;;;;;;16.27;9.20;;;1.00;99.90;;;;;;4942120;28;20601;-55
2024/01/12 08:27:23;;;;;;;19.07;10.80;;;1.30;99.90;;;;;;4959243;28;20204;-55
2024/01/12 08:29:49;;;;;;;18.33;10.57;;;1.10;99.90;;;;;;4960758;28;20191;-53
2024/01/12 08:32:14;;;;;;;17.93;10.73;;;0.90;99.90;;;;;;4961419;28;20208;-53
2024/01/12 08:34:40;;;;;;;15.40;9.27;;;0.80;99.90;;;;;;4957114;28;20989;-53
2024/01/12 08:37:08;;;;;;;12.90;9.37;;;0.90;99.90;;;;;;4955799;28;20211;-53
2024/01/12 08:39:34;;;;;;;15.13;9.43;;;0.90;99.90;;;;;;4955697;28;20745;-54
2024/01/12 08:42:00;;;;;;;12.70;8.60;;;0.90;99.90;;;;;;4955799;28;20688;-53
2024/01/12 08:44:25;;;;;;;12.63;7.50;;;1.00;99.90;;;;;;4948331;28;20865;-61
2024/01/12 08:46:54;;;;;;;14.10;8.00;;;1.10;99.90;;;;;;4954818;28;20674;-62
2024/01/12 08:49:23;;;;;;;14.80;9.27;;;1.20;99.90;;;;;;4960407;28;20201;-52
2024/01/12 08:51:48;;;;;;;11.87;8.17;;;1.10;99.90;;;;;;4952448;28;20204;-54
2024/01/12 08:54:14;;;;;;;12.60;7.13;;;1.10;99.90;;;;;;4951701;28;20205;-54
2024/01/12 08:56:41;;;;;;;12.27;8.10;;;1.00;99.90;;;;;;4959361;28;20681;-54
2024/01/12 08:59:08;;;;;;;11.53;7.67;;;1.00;99.90;;;;;;4957971;28;20369;-57
2024/01/12 09:01:33;;;;;;;10.43;7.07;;;1.00;99.90;;;;;;4944729;28;21451;-54
2024/01/12 09:04:01;;;;;;;9.60;7.00;;;1.00;99.90;;;;;;4959150;28;20231;-53
2024/01/12 09:06:27;;;;;;;9.20;6.17;;;0.90;99.90;;;;;;4955771;28;20195;-53
2024/01/12 09:08:53;;;;;;;10.07;7.00;;;1.00;99.90;;;;;;4955412;28;20740;-53
2024/01/12 09:11:18;;;;;;;6.63;5.03;;;1.10;99.90;;;;;;4958116;28;20204;-59
2024/01/12 09:13:44;;;;;;;8.47;5.53;;;1.10;99.90;;;;;;4960350;28;20237;-63
2024/01/12 09:16:10;;;;;;;7.53;5.47;;;1.20;99.90;;;;;;4959626;28;20196;-53
2024/01/12 09:18:36;;;;;;;8.40;5.90;;;1.30;99.90;;;;;;4954526;28;20210;-53
2024/01/12 09:21:01;;;;;;;8.27;6.00;;;1.30;99.90;;;;;;4955290;28;20213;-65
2024/01/12 09:23:27;;;;;;;8.90;5.17;;;1.40;99.90;;;;;;4932202;28;20240;-59
2024/01/12 09:25:54;;;;;;;5.03;3.83;;;1.40;99.90;;;;;;4949449;28;20292;-54
2024/01/12 09:28:20;;;;;;;5.70;4.43;;;1.10;99.90;;;;;;4950048;28;20202;-54
2024/01/12 09:30:46;;;;;;;4.67;4.17;;;1.20;99.90;;;;;;4944981;28;20194;-54
2024/01/12 09:33:12;;;;;;;7.17;4.60;;;1.20;99.90;;;;;;4954021;28;20285;-54
2024/01/12 09:35:38;;;;;;;8.00;4.43;;;1.10;99.90;;;;;;4955663;28;20249;-54
2024/01/12 09:38:03;;;;;;;4.90;3.93;;;1.30;99.90;;;;;;4972254;28;20611;-54
2024/01/12 09:40:29;;;;;;;7.30;4.50;;;1.10;99.90;;;;;;4951070;28;20211;-55
2024/01/12 09:42:56;;;;;;;5.97;5.27;;;0.80;99.90;;;;;;4951395;28;20278;-53
2024/01/12 09:45:23;;;;;;;8.20;5.00;;;0.50;99.90;;;;;;4957192;28;20289;-53
2024/01/12 09:47:49;;;;;;;7.00;5.10;;;0.50;99.90;;;;;;4941032;28;20772;-55
2024/01/12 09:50:16;;;;;;;7.37;5.00;;;0.80;99.90;;;;;;4951292;28;20214;-53
2024/01/12 09:52:41;;;;;;;7.60;5.00;;;1.00;99.90;;;;;;4954794;28;20687;-55
2024/01/12 09:55:07;;;;;;;7.43;5.47;;;1.10;99.90;;;;;;4947420;28;20214;-52
2024/01/12 09:57:39;;;;;;;7.00;5.43;;;0.70;99.90;;;;;;4960869;28;20278;-54
2024/01/12 10:00:08;;;;;;;7.57;5.80;;;0.60;99.90;;;;;;4959324;28;21016;-54
2024/01/12 10:02:33;;;;;;;9.60;5.93;;;0.60;99.90;;;;;;4960077;28;20229;-53
2024/01/12 10:04:59;;;;;;;9.47;6.67;;;0.50;99.90;;;;;;4959998;28;20231;-54
2024/01/12 10:07:25;;;;;;;13.77;7.97;;;0.60;99.90;;;;;;4951111;28;20211;-53
2024/01/12 10:09:50;;;;;;;10.23;6.93;;;0.70;99.90;;;;;;4949475;28;20352;-53
2024/01/12 10:12:16;;;;;;;7.80;5.17;;;0.40;99.90;;;;;;4956156;28;20683;-52
2024/01/12 10:14:42;;;;;;;10.80;5.70;;;0.70;99.90;;;;;;4953224;28;20219;-54
2024/01/12 10:17:08;;;;;;;8.83;6.00;;;0.80;99.90;;;;;;4954846;28;20208;-53
2024/01/12 10:19:34;;;;;;;9.27;6.20;;;0.90;99.90;;;;;;4959274;28;20199;-53
2024/01/12 10:22:00;;;;;;;12.30;6.20;;;0.80;99.90;;;;;;4956245;28;20250;-53
2024/01/12 10:24:27;;;;;;;13.63;8.20;;;0.80;99.90;;;;;;4955499;28;20222;-52
2024/01/12 10:26:52;;;;;;;9.33;6.10;;;0.90;99.90;;;;;;4954921;28;20280;-53
2024/01/12 10:29:18;;;;;;;8.37;6.27;;;0.80;99.90;;;;;;4956384;28;20217;-53
2024/01/12 10:31:45;;;;;;;8.97;5.97;;;0.80;99.90;;;;;;4957471;28;20591;-53
2024/01/12 10:34:12;;;;;;;11.67;6.90;;;1.10;99.90;;;;;;4955165;28;20214;-52
2024/01/12 10:36:39;;;;;;;13.83;7.00;;;0.70;99.90;;;;;;4954885;28;20776;-54
2024/01/12 10:39:10;;;;;;;11.13;6.60;;;0.60;99.90;;;;;;4959187;28;20191;-55
2024/01/12 10:41:36;;;;;;;12.93;7.13;;;0.50;99.90;;;;;;4953853;28;20202;-55
2024/01/12 10:44:05;;;;;;;16.03;8.83;;;0.40;99.90;;;;;;4955522;28;20214;-54
2024/01/12 10:46:45;;;;;;;16.53;8.63;;;0.30;99.90;;;;;;4936988;28;20266;-55
2024/01/12 10:49:23;;;;;;;15.73;7.00;;;0.50;99.90;;;;;;4952108;28;20336;-54
2024/01/12 10:52:01;;;;;;;13.17;9.07;;;0.90;99.90;;;;;;4952985;28;20575;-52
2024/01/12 10:54:32;;;;;;;14.97;8.77;;;0.70;99.90;;;;;;4953171;28;20199;-54
2024/01/12 10:57:00;;;;;;;11.57;7.50;;;0.40;99.90;;;;;;4946845;28;20286;-54
2024/01/12 10:59:27;;;;;;;13.23;7.70;;;0.50;99.90;;;;;;4950524;28;20277;-55
2024/01/12 11:01:54;;;;;;;11.93;7.93;;;0.40;99.90;;;;;;4959199;28;20296;-54
2024/01/12 11:04:21;;;;;;;17.97;9.90;;;0.50;99.90;;;;;;4940614;28;20294;-55
2024/01/12 11:06:48;;;;;;;12.67;7.63;;;0.60;99.90;;;;;;4950232;28;20294;-53
2024/01/12 11:09:17;;;;;;;14.80;8.43;;;0.30;99.90;;;;;;4958112;28;20206;-54
2024/01/12 11:12:10;;;;;;;12.70;8.37;;;0.10;99.90;;;;;;4958724;28;20635;-54
2024/01/12 11:14:38;;;;;;;15.17;9.23;;;0.20;99.90;;;;;;4953266;28;20459;-54
2024/01/12 11:17:05;;;;;;;12.23;8.13;;;0.30;99.90;;;;;;4957932;28;20214;-53
2024/01/12 11:19:32;;;;;;;15.13;8.60;;;0.40;99.90;;;;;;4956340;28;20204;-53
2024/01/12 11:22:10;;;;;;;14.83;9.33;;;0.50;99.90;;;;;;4964023;28;20416;-55
2024/01/12 11:24:37;;;;;;;13.23;9.10;;;0.40;99.90;;;;;;4955712;28;20233;-53
2024/01/12 11:27:06;;;;;;;17.93;9.17;;;0.40;99.90;;;;;;4952336;28;20622;-53
2024/01/12 11:29:35;;;;;;;13.40;8.70;;;0.20;99.90;;;;;;4955729;28;20658;-63
2024/01/12 11:32:04;;;;;;;14.00;9.17;;;0.20;99.90;;;;;;4956500;28;20242;-54
2024/01/12 11:34:33;;;;;;;14.73;10.13;;;0.20;99.90;;;;;;4954352;28;20279;-54
2024/01/12 11:36:59;;;;;;;19.73;9.70;;;0.20;99.90;;;;;;4953367;28;20213;-64
2024/01/12 11:39:24;;;;;;;11.87;8.03;;;0.10;99.90;;;;;;4955029;28;20189;-53
2024/01/12 11:41:55;;;;;;;10.30;7.63;;;0.00;99.90;;;;;;4953425;28;20280;-53
2024/01/12 11:44:20;;;;;;;16.43;9.30;;;0.10;99.90;;;;;;4950839;28;20217;-54
2024/01/12 11:46:47;;;;;;;13.47;8.10;;;0.20;99.90;;;;;;4951790;28;20854;-55
2024/01/12 11:49:15;;;;;;;14.60;9.73;;;0.30;99.90;;;;;;4951886;28;20207;-53
2024/01/12 11:51:40;;;;;;;13.73;8.27;;;0.40;99.90;;;;;;4958637;28;20262;-54
2024/01/12 11:54:06;;;;;;;16.97;9.20;;;0.60;99.90;;;;;;4964735;28;20211;-53
2024/01/12 11:56:32;;;;;;;12.53;8.77;;;0.30;99.90;;;;;;4952570;28;20202;-54
2024/01/12 11:58:57;;;;;;;14.53;9.70;;;0.20;99.90;;;;;;4943178;28;20660;-54
2024/01/12 12:01:24;;;;;;;17.20;10.03;;;0.40;99.90;;;;;;4957725;28;20721;-53
2024/01/12 12:03:50;;;;;;;17.80;10.20;;;0.20;99.90;;;;;;4953001;28;20319;-54
2024/01/12 12:06:16;;;;;;;14.30;10.03;;;0.00;99.90;;;;;;4951402;28;20290;-54
2024/01/12 12:08:42;;;;;;;16.47;8.77;;;0.10;99.90;;;;;;4958416;28;20675;-54
2024/01/12 12:11:08;;;;;;;16.93;9.53;;;0.10;99.90;;;;;;4956443;28;20208;-54
2024/01/12 12:13:35;;;;;;;16.07;9.87;;;0.00;99.90;;;;;;4950479;28;20292;-54
2024/01/12 12:16:01;;;;;;;16.23;9.97;;;-0.10;99.90;;;;;;4957137;28;20232;-57
2024/01/12 12:18:28;;;;;;;17.27;9.97;;;0.10;99.90;;;;;;4961240;28;20205;-53
2024/01/12 12:20:54;;;;;;;17.17;9.47;;;0.10;99.90;;;;;;4954885;28;20207;-53
2024/01/12 12:23:20;;;;;;;17.93;10.20;;;0.30;99.90;;;;;;4955592;28;20798;-55
2024/01/12 12:25:45;;;;;;;19.37;10.43;;;0.40;99.90;;;;;;4956990;28;20194;-54
2024/01/12 12:28:11;;;;;;;18.77;9.43;;;0.30;99.90;;;;;;4952560;28;20221;-54
2024/01/12 12:30:42;;;;;;;18.03;10.00;;;0.00;99.90;;;;;;4957659;28;20627;-54
2024/01/12 12:33:09;;;;;;;17.23;8.93;;;0.10;99.90;;;;;;4956817;28;20328;-54
2024/01/12 12:35:35;;;;;;;20.00;10.40;;;0.20;99.90;;;;;;4955213;28;20195;-54